sensor_id;sensor_type;location;lat;lon;timestamp;pressure;altitude;pressure_sealevel;temperature;humidity
9709;BME280;4893;42.024;23.098;2022-09-09T00:09:47;97032.84;;;18.71;100.00
9709;BME280;4893;42.024;23.098;2022-09-09T00:12:34;97036.59;;;18.64;100.00
9709;BME280;4893;42.024;23.098;2022-09-09T00:15:13;97034.56;;;18.66;100.00
9709;BME280;4893;42.024;23.098;2022-09-09T00:31:26;97036.97;;;18.49;100.00
9709;BME280;4893;42.024;23.098;2022-09-09T00:33:53;97022.78;;;18.50;100.00
9709;BME280;4893;42.024;23.098;2022-09-09T00:36:22;97033.63;;;18.42;100.00
9709;BME280;4893;42.024;23.098;2022-09-09T00:38:57;97015.81;;;18.44;100.00
9709;BME280;4893;42.024;23.098;2022-09-09T00:41:49;97018.22;;;18.46;100.00
9709;BME280;4893;42.024;23.098;2022-09-09T00:44:32;97011.56;;;18.25;100.00
9709;BME280;4893;42.024;23.098;2022-09-09T00:47:34;97011.78;;;18.42;100.00
9709;BME280;4893;42.024;23.098;2022-09-09T00:50:32;97020.00;;;18.27;100.00
9709;BME280;4893;42.024;23.098;2022-09-09T00:53:24;97026.44;;;18.31;100.00
9709;BME280;4893;42.024;23.098;2022-09-09T00:56:24;97018.41;;;18.26;100.00
9709;BME280;4893;42.024;23.098;2022-09-09T01:01:36;97014.59;;;18.22;100.00
9709;BME280;4893;42.024;23.098;2022-09-09T01:04:05;97032.81;;;18.24;100.00
9709;BME280;4893;42.024;23.098;2022-09-09T01:06:36;97022.63;;;18.27;100.00
9709;BME280;4893;42.024;23.098;2022-09-09T01:17:30;97032.44;;;18.20;100.00
9709;BME280;4893;42.024;23.098;2022-09-09T01:23:11;97033.16;;;18.09;100.00
9709;BME280;4893;42.024;23.098;2022-09-09T01:28:27;97042.50;;;17.87;100.00
9709;BME280;4893;42.024;23.098;2022-09-09T01:30:55;97038.28;;;17.86;100.00
9709;BME280;4893;42.024;23.098;2022-09-09T01:33:21;97042.06;;;17.90;100.00
9709;BME280;4893;42.024;23.098;2022-09-09T01:35:55;97036.66;;;17.85;100.00
9709;BME280;4893;42.024;23.098;2022-09-09T01:38:23;97041.03;;;17.73;100.00
9709;BME280;4893;42.024;23.098;2022-09-09T01:40:51;97042.03;;;17.72;100.00
9709;BME280;4893;42.024;23.098;2022-09-09T01:43:20;97035.13;;;17.77;100.00
9709;BME280;4893;42.024;23.098;2022-09-09T01:45:49;97027.44;;;17.76;100.00
9709;BME280;4893;42.024;23.098;2022-09-09T01:48:19;97023.00;;;17.76;100.00
9709;BME280;4893;42.024;23.098;2022-09-09T01:50:46;97029.41;;;17.80;100.00
9709;BME280;4893;42.024;23.098;2022-09-09T01:53:12;97023.72;;;17.83;100.00
9709;BME280;4893;42.024;23.098;2022-09-09T01:55:40;97026.41;;;17.77;100.00
9709;BME280;4893;42.024;23.098;2022-09-09T01:58:29;97025.56;;;17.83;100.00
9709;BME280;4893;42.024;23.098;2022-09-09T02:01:15;97021.03;;;17.90;100.00
9709;BME280;4893;42.024;23.098;2022-09-09T02:03:48;97012.78;;;17.86;100.00
9709;BME280;4893;42.024;23.098;2022-09-09T02:06:36;97016.38;;;17.92;100.00
9709;BME280;4893;42.024;23.098;2022-09-09T02:09:05;97021.41;;;17.93;100.00
9709;BME280;4893;42.024;23.098;2022-09-09T02:11:31;97025.50;;;17.89;100.00
9709;BME280;4893;42.024;23.098;2022-09-09T02:14:06;97029.66;;;17.79;100.00
9709;BME280;4893;42.024;23.098;2022-09-09T02:16:43;97034.59;;;17.69;100.00
9709;BME280;4893;42.024;23.098;2022-09-09T02:19:34;97022.50;;;17.86;100.00
9709;BME280;4893;42.024;23.098;2022-09-09T02:22:01;97022.50;;;17.86;100.00
9709;BME280;4893;42.024;23.098;2022-09-09T02:24:32;97015.78;;;17.90;100.00
9709;BME280;4893;42.024;23.098;2022-09-09T02:27:08;97014.19;;;17.89;100.00
9709;BME280;4893;42.024;23.098;2022-09-09T02:29:36;97000.31;;;17.82;100.00
9709;BME280;4893;42.024;23.098;2022-09-09T02:32:06;96993.81;;;17.84;100.00
9709;BME280;4893;42.024;23.098;2022-09-09T02:34:35;97010.50;;;17.72;100.00
9709;BME280;4893;42.024;23.098;2022-09-09T02:37:03;97020.31;;;17.83;100.00
9709;BME280;4893;42.024;23.098;2022-09-09T02:39:31;97015.06;;;17.83;100.00
9709;BME280;4893;42.024;23.098;2022-09-09T02:41:57;97013.41;;;17.64;100.00
9709;BME280;4893;42.024;23.098;2022-09-09T02:44:22;97026.81;;;17.56;100.00
9709;BME280;4893;42.024;23.098;2022-09-09T02:49:34;97012.84;;;17.80;100.00
9709;BME280;4893;42.024;23.098;2022-09-09T02:52:08;97009.44;;;17.79;100.00
9709;BME280;4893;42.024;23.098;2022-09-09T02:54:38;97015.63;;;17.67;100.00
9709;BME280;4893;42.024;23.098;2022-09-09T02:57:17;97020.72;;;17.62;100.00
9709;BME280;4893;42.024;23.098;2022-09-09T02:59:44;97017.94;;;17.57;100.00
9709;BME280;4893;42.024;23.098;2022-09-09T03:02:10;97020.84;;;17.49;100.00
9709;BME280;4893;42.024;23.098;2022-09-09T03:04:37;97013.00;;;17.42;100.00
9709;BME280;4893;42.024;23.098;2022-09-09T03:07:03;97004.28;;;17.48;100.00
9709;BME280;4893;42.024;23.098;2022-09-09T03:09:29;97004.31;;;17.42;100.00
9709;BME280;4893;42.024;23.098;2022-09-09T03:11:55;96989.91;;;17.26;100.00
9709;BME280;4893;42.024;23.098;2022-09-09T03:14:24;97002.16;;;17.08;100.00
9709;BME280;4893;42.024;23.098;2022-09-09T03:16:53;97009.28;;;17.25;100.00
9709;BME280;4893;42.024;23.098;2022-09-09T03:19:20;97013.97;;;17.17;100.00
9709;BME280;4893;42.024;23.098;2022-09-09T03:21:46;97018.66;;;17.15;100.00
9709;BME280;4893;42.024;23.098;2022-09-09T03:24:13;97020.59;;;17.26;100.00
9709;BME280;4893;42.024;23.098;2022-09-09T03:26:40;97029.53;;;17.18;100.00
9709;BME280;4893;42.024;23.098;2022-09-09T03:29:06;97010.09;;;17.26;100.00
9709;BME280;4893;42.024;23.098;2022-09-09T03:31:32;96969.22;;;16.87;100.00
9709;BME280;4893;42.024;23.098;2022-09-09T03:33:58;97004.94;;;17.13;100.00
9709;BME280;4893;42.024;23.098;2022-09-09T03:36:25;97011.69;;;17.27;100.00
9709;BME280;4893;42.024;23.098;2022-09-09T03:38:51;97008.28;;;17.26;100.00
9709;BME280;4893;42.024;23.098;2022-09-09T03:41:26;97000.47;;;17.20;100.00
9709;BME280;4893;42.024;23.098;2022-09-09T03:43:53;97008.06;;;17.28;100.00
9709;BME280;4893;42.024;23.098;2022-09-09T03:46:24;97006.00;;;17.30;100.00
9709;BME280;4893;42.024;23.098;2022-09-09T03:48:50;97009.06;;;17.27;100.00
9709;BME280;4893;42.024;23.098;2022-09-09T03:51:16;97002.16;;;17.08;100.00
9709;BME280;4893;42.024;23.098;2022-09-09T03:53:41;97019.03;;;17.18;100.00
9709;BME280;4893;42.024;23.098;2022-09-09T03:56:08;97013.38;;;17.21;100.00
9709;BME280;4893;42.024;23.098;2022-09-09T03:58:35;97011.31;;;17.23;100.00
9709;BME280;4893;42.024;23.098;2022-09-09T04:01:03;97017.81;;;17.21;100.00
9709;BME280;4893;42.024;23.098;2022-09-09T04:03:29;97026.97;;;17.12;100.00
9709;BME280;4893;42.024;23.098;2022-09-09T04:05:57;97035.78;;;17.17;100.00
9709;BME280;4893;42.024;23.098;2022-09-09T04:08:23;97040.34;;;17.04;100.00
9709;BME280;4893;42.024;23.098;2022-09-09T04:10:53;97033.97;;;17.18;100.00
9709;BME280;4893;42.024;23.098;2022-09-09T04:13:23;97012.44;;;17.09;100.00
9709;BME280;4893;42.024;23.098;2022-09-09T04:16:00;97037.00;;;17.21;100.00
9709;BME280;4893;42.024;23.098;2022-09-09T04:18:26;97027.00;;;17.30;100.00
9709;BME280;4893;42.024;23.098;2022-09-09T04:20:54;96959.34;;;16.83;100.00
9709;BME280;4893;42.024;23.098;2022-09-09T04:23:21;97032.59;;;17.40;100.00
9709;BME280;4893;42.024;23.098;2022-09-09T04:25:47;97042.31;;;17.39;100.00
9709;BME280;4893;42.024;23.098;2022-09-09T04:28:14;97032.59;;;17.40;100.00
9709;BME280;4893;42.024;23.098;2022-09-09T04:30:40;97029.00;;;17.34;100.00
9709;BME280;4893;42.024;23.098;2022-09-09T04:33:07;97029.94;;;17.46;100.00
9709;BME280;4893;42.024;23.098;2022-09-09T04:35:32;97031.44;;;17.36;100.00
9709;BME280;4893;42.024;23.098;2022-09-09T04:37:58;97040.22;;;17.48;100.00
9709;BME280;4893;42.024;23.098;2022-09-09T04:40:23;97048.31;;;17.46;100.00
9709;BME280;4893;42.024;23.098;2022-09-09T04:42:50;97040.56;;;17.58;100.00
9709;BME280;4893;42.024;23.098;2022-09-09T04:45:15;97049.91;;;17.54;100.00
9709;BME280;4893;42.024;23.098;2022-09-09T04:47:40;97043.00;;;17.53;100.00
9709;BME280;4893;42.024;23.098;2022-09-09T04:50:07;97053.91;;;17.56;100.00
9709;BME280;4893;42.024;23.098;2022-09-09T04:52:34;97043.28;;;17.69;100.00
9709;BME280;4893;42.024;23.098;2022-09-09T04:55:01;97042.66;;;17.92;100.00
9709;BME280;4893;42.024;23.098;2022-09-09T04:57:26;97039.97;;;18.82;100.00
9709;BME280;4893;42.024;23.098;2022-09-09T04:59:51;97025.06;;;19.59;100.00
9709;BME280;4893;42.024;23.098;2022-09-09T05:02:17;97059.88;;;20.30;100.00
9709;BME280;4893;42.024;23.098;2022-09-09T05:04:43;97071.81;;;20.44;100.00
9709;BME280;4893;42.024;23.098;2022-09-09T05:07:08;97073.31;;;20.80;100.00
9709;BME280;4893;42.024;23.098;2022-09-09T05:09:34;97071.56;;;21.13;100.00
9709;BME280;4893;42.024;23.098;2022-09-09T05:11:59;97055.91;;;20.95;100.00
9709;BME280;4893;42.024;23.098;2022-09-09T05:14:25;97050.78;;;21.66;100.00
9709;BME280;4893;42.024;23.098;2022-09-09T05:16:51;97060.88;;;22.03;100.00
9709;BME280;4893;42.024;23.098;2022-09-09T05:19:16;97072.41;;;22.13;100.00
9709;BME280;4893;42.024;23.098;2022-09-09T05:21:44;97054.41;;;22.75;100.00
9709;BME280;4893;42.024;23.098;2022-09-09T05:24:09;97067.44;;;23.03;100.00
9709;BME280;4893;42.024;23.098;2022-09-09T05:26:35;97065.88;;;23.28;100.00
9709;BME280;4893;42.024;23.098;2022-09-09T05:29:00;97081.16;;;23.48;100.00
9709;BME280;4893;42.024;23.098;2022-09-09T05:31:26;97096.19;;;22.68;100.00
9709;BME280;4893;42.024;23.098;2022-09-09T05:33:53;97087.81;;;22.54;100.00
9709;BME280;4893;42.024;23.098;2022-09-09T05:36:20;97071.03;;;22.92;100.00
9709;BME280;4893;42.024;23.098;2022-09-09T05:38:46;97061.34;;;22.76;100.00
9709;BME280;4893;42.024;23.098;2022-09-09T05:41:13;97058.13;;;22.74;100.00
9709;BME280;4893;42.024;23.098;2022-09-09T05:43:43;97064.75;;;22.98;100.00
9709;BME280;4893;42.024;23.098;2022-09-09T05:46:19;97060.22;;;22.72;100.00
9709;BME280;4893;42.024;23.098;2022-09-09T05:48:46;97061.13;;;21.68;100.00
9709;BME280;4893;42.024;23.098;2022-09-09T05:51:14;97072.78;;;23.08;100.00
9709;BME280;4893;42.024;23.098;2022-09-09T05:53:43;97084.66;;;24.27;100.00
9709;BME280;4893;42.024;23.098;2022-09-09T05:56:11;97084.63;;;23.85;100.00
9709;BME280;4893;42.024;23.098;2022-09-09T05:58:38;97086.56;;;24.31;100.00
9709;BME280;4893;42.024;23.098;2022-09-09T06:01:14;97093.50;;;24.37;100.00
9709;BME280;4893;42.024;23.098;2022-09-09T06:03:41;97093.50;;;24.37;100.00
9709;BME280;4893;42.024;23.098;2022-09-09T06:06:13;97088.25;;;25.29;100.00
9709;BME280;4893;42.024;23.098;2022-09-09T06:08:41;97102.06;;;23.45;100.00
9709;BME280;4893;42.024;23.098;2022-09-09T06:11:14;97068.47;;;24.80;100.00
9709;BME280;4893;42.024;23.098;2022-09-09T06:13:41;97089.66;;;26.07;100.00
9709;BME280;4893;42.024;23.098;2022-09-09T06:16:11;97097.81;;;26.51;98.16
9709;BME280;4893;42.024;23.098;2022-09-09T06:18:38;97082.59;;;26.66;99.42
9709;BME280;4893;42.024;23.098;2022-09-09T06:21:06;97095.16;;;27.14;93.16
9709;BME280;4893;42.024;23.098;2022-09-09T06:23:35;97093.63;;;27.52;94.13
9709;BME280;4893;42.024;23.098;2022-09-09T06:26:18;97027.28;;;27.36;89.68
9709;BME280;4893;42.024;23.098;2022-09-09T06:28:48;97077.63;;;27.81;88.38
9709;BME280;4893;42.024;23.098;2022-09-09T06:31:17;97080.72;;;27.20;88.56
9709;BME280;4893;42.024;23.098;2022-09-09T06:33:43;97070.91;;;27.88;85.40
9709;BME280;4893;42.024;23.098;2022-09-09T06:36:20;97063.75;;;28.12;85.07
9709;BME280;4893;42.024;23.098;2022-09-09T06:38:46;97064.22;;;28.67;84.24
9709;BME280;4893;42.024;23.098;2022-09-09T06:41:14;97080.69;;;28.97;84.24
9709;BME280;4893;42.024;23.098;2022-09-09T06:43:40;97080.28;;;28.67;73.49
9709;BME280;4893;42.024;23.098;2022-09-09T06:46:10;97080.59;;;27.46;83.41
9709;BME280;4893;42.024;23.098;2022-09-09T06:48:39;97071.44;;;27.90;82.60
9709;BME280;4893;42.024;23.098;2022-09-09T06:51:13;97079.41;;;27.18;84.11
9709;BME280;4893;42.024;23.098;2022-09-09T06:53:40;97072.78;;;26.52;89.32
9709;BME280;4893;42.024;23.098;2022-09-09T06:56:21;97077.28;;;26.66;96.19
9709;BME280;4893;42.024;23.098;2022-09-09T06:58:49;97068.19;;;27.60;91.18
9709;BME280;4893;42.024;23.098;2022-09-09T07:01:16;97069.88;;;28.13;82.00
9709;BME280;4893;42.024;23.098;2022-09-09T07:03:47;97065.81;;;28.44;85.01
9709;BME280;4893;42.024;23.098;2022-09-09T07:06:19;97043.75;;;27.48;82.84
9709;BME280;4893;42.024;23.098;2022-09-09T07:08:52;97047.13;;;27.58;84.10
9709;BME280;4893;42.024;23.098;2022-09-09T07:11:19;97038.88;;;26.57;91.27
9709;BME280;4893;42.024;23.098;2022-09-09T07:13:45;97063.75;;;26.33;91.73
9709;BME280;4893;42.024;23.098;2022-09-09T07:16:13;97056.09;;;25.91;98.48
9709;BME280;4893;42.024;23.098;2022-09-09T07:18:40;97039.09;;;25.77;99.39
9709;BME280;4893;42.024;23.098;2022-09-09T07:21:06;97044.94;;;25.79;100.00
9709;BME280;4893;42.024;23.098;2022-09-09T07:23:32;97048.16;;;25.71;100.00
9709;BME280;4893;42.024;23.098;2022-09-09T07:25:58;97038.97;;;26.42;100.00
9709;BME280;4893;42.024;23.098;2022-09-09T07:28:29;97030.56;;;27.22;100.00
9709;BME280;4893;42.024;23.098;2022-09-09T07:30:57;97028.09;;;26.92;92.66
9709;BME280;4893;42.024;23.098;2022-09-09T07:33:24;97027.41;;;27.15;99.93
9709;BME280;4893;42.024;23.098;2022-09-09T07:35:51;97031.44;;;26.54;96.35
9709;BME280;4893;42.024;23.098;2022-09-09T07:38:17;97020.81;;;26.44;96.09
9709;BME280;4893;42.024;23.098;2022-09-09T07:40:43;97031.69;;;26.58;96.31
9709;BME280;4893;42.024;23.098;2022-09-09T07:43:08;97029.44;;;26.90;94.78
9709;BME280;4893;42.024;23.098;2022-09-09T07:45:34;97024.06;;;27.39;97.63
9709;BME280;4893;42.024;23.098;2022-09-09T07:48:02;97031.75;;;27.01;93.44
9709;BME280;4893;42.024;23.098;2022-09-09T07:50:28;97031.16;;;27.14;93.38
9709;BME280;4893;42.024;23.098;2022-09-09T07:52:53;97030.03;;;27.20;91.32
9709;BME280;4893;42.024;23.098;2022-09-09T07:55:20;97029.47;;;27.23;98.04
9709;BME280;4893;42.024;23.098;2022-09-09T07:57:46;97030.09;;;27.54;98.79
9709;BME280;4893;42.024;23.098;2022-09-09T08:00:12;97018.03;;;27.23;98.66
9709;BME280;4893;42.024;23.098;2022-09-09T08:02:39;97029.06;;;27.06;94.95
9709;BME280;4893;42.024;23.098;2022-09-09T08:05:05;97023.50;;;27.03;96.58
9709;BME280;4893;42.024;23.098;2022-09-09T08:07:31;97023.03;;;26.91;96.00
9709;BME280;4893;42.024;23.098;2022-09-09T08:09:57;97024.13;;;27.23;98.65
9709;BME280;4893;42.024;23.098;2022-09-09T08:12:22;97019.94;;;27.12;96.43
9709;BME280;4893;42.024;23.098;2022-09-09T08:14:48;97018.41;;;27.06;99.67
9709;BME280;4893;42.024;23.098;2022-09-09T08:17:13;97021.00;;;27.55;95.66
9709;BME280;4893;42.024;23.098;2022-09-09T08:19:46;97012.75;;;28.09;90.48
9709;BME280;4893;42.024;23.098;2022-09-09T08:22:11;97013.59;;;28.75;89.61
9709;BME280;4893;42.024;23.098;2022-09-09T08:24:37;96996.44;;;28.76;87.23
9709;BME280;4893;42.024;23.098;2022-09-09T08:27:02;97023.13;;;28.81;83.80
9709;BME280;4893;42.024;23.098;2022-09-09T08:29:27;97011.78;;;28.71;77.76
9709;BME280;4893;42.024;23.098;2022-09-09T08:31:58;97011.75;;;28.28;75.73
9709;BME280;4893;42.024;23.098;2022-09-09T08:34:24;97020.34;;;28.49;70.91
9709;BME280;4893;42.024;23.098;2022-09-09T08:36:52;97018.94;;;28.75;69.97
9709;BME280;4893;42.024;23.098;2022-09-09T08:39:19;97023.22;;;29.13;65.50
9709;BME280;4893;42.024;23.098;2022-09-09T08:55:47;97017.47;;;30.03;62.91
9709;BME280;4893;42.024;23.098;2022-09-09T08:58:25;97018.41;;;30.39;62.36
9709;BME280;4893;42.024;23.098;2022-09-09T09:08:44;97005.94;;;28.87;62.47
9709;BME280;4893;42.024;23.098;2022-09-09T09:11:11;97007.38;;;29.35;60.94
9709;BME280;4893;42.024;23.098;2022-09-09T09:13:47;96999.94;;;29.64;62.36
9709;BME280;4893;42.024;23.098;2022-09-09T09:16:27;97012.81;;;29.62;60.16
9709;BME280;4893;42.024;23.098;2022-09-09T09:18:58;97015.25;;;29.77;64.25
9709;BME280;4893;42.024;23.098;2022-09-09T09:21:44;96992.00;;;29.41;62.42
9709;BME280;4893;42.024;23.098;2022-09-09T09:24:29;97014.38;;;29.63;61.77
9709;BME280;4893;42.024;23.098;2022-09-09T09:27:11;97008.03;;;29.27;66.69
9709;BME280;4893;42.024;23.098;2022-09-09T09:29:38;97007.25;;;29.59;64.54
9709;BME280;4893;42.024;23.098;2022-09-09T09:32:05;97005.22;;;29.19;64.26
9709;BME280;4893;42.024;23.098;2022-09-09T09:34:32;96997.06;;;29.42;70.47
9709;BME280;4893;42.024;23.098;2022-09-09T09:36:59;96987.88;;;29.16;63.38
9709;BME280;4893;42.024;23.098;2022-09-09T09:39:31;96984.31;;;29.02;67.13
9709;BME280;4893;42.024;23.098;2022-09-09T09:42:17;96991.63;;;28.78;67.70
9709;BME280;4893;42.024;23.098;2022-09-09T09:44:43;96979.56;;;28.81;72.53
9709;BME280;4893;42.024;23.098;2022-09-09T09:47:15;96979.69;;;28.47;66.46
9709;BME280;4893;42.024;23.098;2022-09-09T09:49:54;96974.69;;;28.40;67.76
9709;BME280;4893;42.024;23.098;2022-09-09T09:52:31;96973.94;;;28.16;67.01
9709;BME280;4893;42.024;23.098;2022-09-09T09:54:58;96952.31;;;28.13;69.75
9709;BME280;4893;42.024;23.098;2022-09-09T09:57:29;96968.88;;;28.15;69.04
9709;BME280;4893;42.024;23.098;2022-09-09T10:00:17;96961.19;;;28.32;72.17
9709;BME280;4893;42.024;23.098;2022-09-09T10:02:44;96963.22;;;28.40;81.77
9709;BME280;4893;42.024;23.098;2022-09-09T10:05:17;96965.63;;;28.41;70.93
9709;BME280;4893;42.024;23.098;2022-09-09T10:07:43;96966.38;;;28.42;74.56
9709;BME280;4893;42.024;23.098;2022-09-09T10:10:15;96965.34;;;28.43;84.56
9709;BME280;4893;42.024;23.098;2022-09-09T10:15:22;96972.63;;;28.14;73.88
9709;BME280;4893;42.024;23.098;2022-09-09T10:29:24;96980.53;;;27.72;89.09
9709;BME280;4893;42.024;23.098;2022-09-09T10:35:04;96977.00;;;27.53;82.89
9709;BME280;4893;42.024;23.098;2022-09-09T10:40:46;96967.06;;;27.58;91.63
9709;BME280;4893;42.024;23.098;2022-09-09T10:52:09;96970.38;;;27.74;90.43
9709;BME280;4893;42.024;23.098;2022-09-09T11:02:56;96972.44;;;27.82;86.18
9709;BME280;4893;42.024;23.098;2022-09-09T11:05:28;96963.69;;;28.00;93.73
9709;BME280;4893;42.024;23.098;2022-09-09T11:08:01;96963.84;;;27.90;81.42
9709;BME280;4893;42.024;23.098;2022-09-09T11:18:46;96968.91;;;27.86;83.58
9709;BME280;4893;42.024;23.098;2022-09-09T11:21:31;96978.25;;;27.89;88.15
9709;BME280;4893;42.024;23.098;2022-09-09T11:24:06;96966.56;;;27.51;83.53
9709;BME280;4893;42.024;23.098;2022-09-09T11:26:49;96955.56;;;27.58;87.50
9709;BME280;4893;42.024;23.098;2022-09-09T11:34:53;96951.59;;;27.55;89.42
9709;BME280;4893;42.024;23.098;2022-09-09T11:40:09;96943.84;;;27.59;91.67
9709;BME280;4893;42.024;23.098;2022-09-09T11:42:40;96940.94;;;27.55;86.34
9709;BME280;4893;42.024;23.098;2022-09-09T11:45:19;96931.25;;;27.59;91.88
9709;BME280;4893;42.024;23.098;2022-09-09T11:47:54;96933.44;;;27.57;90.71
9709;BME280;4893;42.024;23.098;2022-09-09T11:52:49;96933.59;;;27.66;100.00
9709;BME280;4893;42.024;23.098;2022-09-09T11:55:25;96937.41;;;27.60;87.78
9709;BME280;4893;42.024;23.098;2022-09-09T12:06:15;96921.38;;;27.60;94.83
9709;BME280;4893;42.024;23.098;2022-09-09T12:08:57;96917.25;;;27.72;93.67
9709;BME280;4893;42.024;23.098;2022-09-09T12:11:29;96909.84;;;27.64;85.41
9709;BME280;4893;42.024;23.098;2022-09-09T12:13:57;96915.28;;;27.83;91.45
9709;BME280;4893;42.024;23.098;2022-09-09T12:16:42;96916.06;;;27.83;89.37
9709;BME280;4893;42.024;23.098;2022-09-09T12:19:21;96912.31;;;27.84;90.50
9709;BME280;4893;42.024;23.098;2022-09-09T12:22:11;96912.59;;;27.83;94.73
9709;BME280;4893;42.024;23.098;2022-09-09T12:24:59;96912.09;;;27.81;93.16
9709;BME280;4893;42.024;23.098;2022-09-09T12:27:36;96909.22;;;27.72;92.14
9709;BME280;4893;42.024;23.098;2022-09-09T12:30:14;96893.44;;;27.76;94.04
9709;BME280;4893;42.024;23.098;2022-09-09T12:32:44;96892.66;;;27.75;89.22
9709;BME280;4893;42.024;23.098;2022-09-09T12:35:15;96892.88;;;27.79;92.43
9709;BME280;4893;42.024;23.098;2022-09-09T12:37:50;96895.50;;;27.84;92.90
9709;BME280;4893;42.024;23.098;2022-09-09T12:40:20;96881.66;;;27.82;91.70
9709;BME280;4893;42.024;23.098;2022-09-09T12:42:46;96887.34;;;27.75;90.27
9709;BME280;4893;42.024;23.098;2022-09-09T12:45:23;96889.31;;;27.88;89.54
9709;BME280;4893;42.024;23.098;2022-09-09T12:47:58;96888.84;;;27.81;89.67
9709;BME280;4893;42.024;23.098;2022-09-09T12:50:28;96891.75;;;27.85;88.09
9709;BME280;4893;42.024;23.098;2022-09-09T12:53:16;96889.84;;;27.85;92.33
9709;BME280;4893;42.024;23.098;2022-09-09T12:55:55;96884.81;;;27.84;88.27
9709;BME280;4893;42.024;23.098;2022-09-09T12:58:22;96886.88;;;27.92;99.18
9709;BME280;4893;42.024;23.098;2022-09-09T13:00:52;96882.94;;;27.84;96.08
9709;BME280;4893;42.024;23.098;2022-09-09T13:03:19;96875.16;;;27.88;98.57
9709;BME280;4893;42.024;23.098;2022-09-09T13:05:50;96886.13;;;27.86;96.51
9709;BME280;4893;42.024;23.098;2022-09-09T13:08:17;96889.56;;;27.87;96.50
9709;BME280;4893;42.024;23.098;2022-09-09T13:10:59;96886.66;;;27.88;96.74
9709;BME280;4893;42.024;23.098;2022-09-09T13:13:41;96877.88;;;27.83;100.00
9709;BME280;4893;42.024;23.098;2022-09-09T13:16:24;96888.63;;;27.78;99.76
9709;BME280;4893;42.024;23.098;2022-09-09T13:18:51;96885.94;;;27.78;100.00
9709;BME280;4893;42.024;23.098;2022-09-09T13:21:17;96881.28;;;27.65;100.00
9709;BME280;4893;42.024;23.098;2022-09-09T13:23:49;96895.34;;;27.75;98.81
9709;BME280;4893;42.024;23.098;2022-09-09T13:26:26;96898.31;;;27.45;98.56
9709;BME280;4893;42.024;23.098;2022-09-09T13:29:16;96901.75;;;27.51;100.00
9709;BME280;4893;42.024;23.098;2022-09-09T13:31:52;96907.06;;;27.51;100.00
9709;BME280;4893;42.024;23.098;2022-09-09T13:34:29;96898.13;;;27.37;100.00
9709;BME280;4893;42.024;23.098;2022-09-09T13:37:05;96903.53;;;27.32;100.00
9709;BME280;4893;42.024;23.098;2022-09-09T13:39:36;96895.56;;;27.27;100.00
9709;BME280;4893;42.024;23.098;2022-09-09T13:42:02;96890.25;;;27.21;100.00
9709;BME280;4893;42.024;23.098;2022-09-09T13:44:38;96878.03;;;27.15;100.00
9709;BME280;4893;42.024;23.098;2022-09-09T13:49:51;96868.56;;;26.99;100.00
9709;BME280;4893;42.024;23.098;2022-09-09T13:52:19;96870.75;;;26.97;100.00
9709;BME280;4893;42.024;23.098;2022-09-09T13:54:49;96869.09;;;27.01;100.00
9709;BME280;4893;42.024;23.098;2022-09-09T13:57:20;96872.09;;;26.95;100.00
9709;BME280;4893;42.024;23.098;2022-09-09T13:59:47;96862.25;;;26.90;100.00
9709;BME280;4893;42.024;23.098;2022-09-09T14:02:13;96858.88;;;26.80;100.00
9709;BME280;4893;42.024;23.098;2022-09-09T14:04:39;96858.25;;;26.88;100.00
9709;BME280;4893;42.024;23.098;2022-09-09T14:07:09;96855.06;;;26.91;100.00
9709;BME280;4893;42.024;23.098;2022-09-09T14:09:36;96851.28;;;26.97;100.00
9709;BME280;4893;42.024;23.098;2022-09-09T14:12:16;96847.56;;;26.93;100.00
9709;BME280;4893;42.024;23.098;2022-09-09T14:14:43;96839.34;;;26.89;100.00
9709;BME280;4893;42.024;23.098;2022-09-09T14:17:09;96817.81;;;26.81;100.00
9709;BME280;4893;42.024;23.098;2022-09-09T14:19:35;96826.84;;;26.85;100.00
9709;BME280;4893;42.024;23.098;2022-09-09T14:22:09;96826.09;;;26.79;100.00
9709;BME280;4893;42.024;23.098;2022-09-09T14:24:34;96821.53;;;26.80;100.00
9709;BME280;4893;42.024;23.098;2022-09-09T14:27:00;96823.16;;;26.81;100.00
9709;BME280;4893;42.024;23.098;2022-09-09T14:29:25;96818.38;;;26.78;100.00
9709;BME280;4893;42.024;23.098;2022-09-09T14:31:51;96821.00;;;26.83;100.00
9709;BME280;4893;42.024;23.098;2022-09-09T14:34:17;96814.59;;;26.84;100.00
9709;BME280;4893;42.024;23.098;2022-09-09T14:36:43;96810.03;;;26.89;100.00
9709;BME280;4893;42.024;23.098;2022-09-09T14:39:10;96815.19;;;27.04;100.00
9709;BME280;4893;42.024;23.098;2022-09-09T14:41:45;96821.56;;;27.08;100.00
9709;BME280;4893;42.024;23.098;2022-09-09T14:44:11;96810.50;;;27.20;100.00
9709;BME280;4893;42.024;23.098;2022-09-09T14:46:36;96813.88;;;27.31;100.00
9709;BME280;4893;42.024;23.098;2022-09-09T14:49:02;96816.44;;;27.41;100.00
9709;BME280;4893;42.024;23.098;2022-09-09T14:51:27;96805.72;;;27.46;100.00
9709;BME280;4893;42.024;23.098;2022-09-09T14:53:58;96799.81;;;27.49;100.00
9709;BME280;4893;42.024;23.098;2022-09-09T14:56:32;96797.38;;;27.52;96.36
9709;BME280;4893;42.024;23.098;2022-09-09T14:58:59;96802.94;;;27.56;97.54
9709;BME280;4893;42.024;23.098;2022-09-09T15:01:29;96801.38;;;27.50;98.93
9709;BME280;4893;42.024;23.098;2022-09-09T15:03:59;96805.44;;;27.47;97.70
9709;BME280;4893;42.024;23.098;2022-09-09T15:06:34;96805.16;;;27.49;99.27
9709;BME280;4893;42.024;23.098;2022-09-09T15:09:02;96803.56;;;27.48;97.09
9709;BME280;4893;42.024;23.098;2022-09-09T15:11:30;96800.97;;;27.43;98.31
9709;BME280;4893;42.024;23.098;2022-09-09T15:13:56;96804.44;;;27.38;99.04
9709;BME280;4893;42.024;23.098;2022-09-09T15:16:23;96806.63;;;27.36;99.76
9709;BME280;4893;42.024;23.098;2022-09-09T15:19:01;96811.22;;;27.31;100.00
9709;BME280;4893;42.024;23.098;2022-09-09T15:21:33;96800.84;;;27.24;100.00
9709;BME280;4893;42.024;23.098;2022-09-09T15:23:59;96801.19;;;27.17;100.00
9709;BME280;4893;42.024;23.098;2022-09-09T15:26:31;96798.53;;;27.17;100.00
9709;BME280;4893;42.024;23.098;2022-09-09T15:28:57;96798.81;;;27.16;100.00
9709;BME280;4893;42.024;23.098;2022-09-09T15:31:27;96805.72;;;27.17;100.00
9709;BME280;4893;42.024;23.098;2022-09-09T15:33:58;96800.19;;;27.13;99.35